Ponca City, OK

11:00 PM CST on January 18, 2017 (GMT -0600)
Ponca City Municipal | | Change Station

Elev 1007 ft 36.73 °N, 97.10 °W | Updated 7 minutes ago

Overcast
Overcast
48 °F
Feels Like 48 °F
N
8
Wind Variable Wind from SSE

Today
High -- | Low -- °F
--% Chance of Precip.
Yesterday
High -- | Low -- °F
Precip. -- in
Pressure 29.92 in
Visibility 10.0 miles
Clouds Overcast 4700 ft
Dew Point 40 °F
Humidity 74%
Rainfall 0.00 in
Snow Depth Not available.
7:38 AM 5:39 PM
Waning Gibbous, 57% visible
METAR KPNC 190453Z AUTO 15007KT 10SM OVC047 09/04 A2992 RMK AO2 SLP131 T00890044
Pressure 29.92 in
Visibility 10.0 miles
Clouds Overcast 4700 ft
Dew Point 40 °F
Humidity 74%
Rainfall 0.00 in
Snow Depth Not available.
7:38 AM 5:39 PM
Waning Gibbous, 57% visible
METAR KPNC 190453Z AUTO 15007KT 10SM OVC047 09/04 A2992 RMK AO2 SLP131 T00890044

Get Your Daily Forecast Email!

Thanks for signing up!

Be on the lookout for a verification email in your inbox.

You'll start receiving the daily forecast at 8 AM.

×

10-Day Weather Forecast

Almanac

Astronomy

Jan. 18, 2017 Rise Set
Actual Time
Civil Twilight
Nautical Twilight
Astronomical Twilight
Moon
Length of Visible Light
Length of Day
Tomorrow will be .
, % of the Moon is Illuminated

Today's Extremes

State Highs State Lows

Community

WunderPhotos

Upload Photos

1,962,540 photos uploaded!

WunderBlog® & News

Nearby

Air Quality

  Air Quality AQ Index Pollutant
Not available.

Snow Depth

Station Depth Elevation

Earthquake Activity

City Distance Mag. Time & Date
Minimum magnitude displayed is 2.5.

Coastal Water Temperatures

Place Temperature

Stations

Nearby Weather Stations

Station Location Temp. Windchill Dew Point Humidity Wind Precip. Elev Updated Type
                   

Watches & Warnings

There are currently no watches in effect.